Time;durP1;ratioP1;P1;durP2;ratioP2;P2;SDS_P1;SDS_P2;PMS_P1;PMS_P2;Temp;Humidity;BMP_temperature;BMP_pressure;BME280_temperature;BME280_humidity;BME280_pressure;Samples;Min_cycle;Max_cycle;Signal;HPM_P1;HPM_P2
2021/10/15 00:02:14;;;;;;;6.95;3.33;;;13.80;99.90;;;;;;5093466;28;20111;-67
2021/10/15 00:04:40;;;;;;;8.57;3.38;;;13.80;99.90;;;;;;5094922;28;20032;-67
2021/10/15 00:07:05;;;;;;;5.15;2.92;;;13.70;99.90;;;;;;5095023;28;20556;-67
2021/10/15 00:09:31;;;;;;;7.65;2.85;;;13.70;99.90;;;;;;5094557;28;20036;-67
2021/10/15 00:11:56;;;;;;;5.75;2.80;;;13.70;99.90;;;;;;5094494;28;20440;-67
2021/10/15 00:14:22;;;;;;;7.22;2.80;;;13.70;99.90;;;;;;5094741;28;20046;-67
2021/10/15 00:16:48;;;;;;;7.93;3.20;;;13.70;99.90;;;;;;5094454;28;20040;-67
2021/10/15 00:19:14;;;;;;;7.25;2.95;;;13.70;99.90;;;;;;5093932;28;20051;-67
2021/10/15 00:21:39;;;;;;;6.57;3.22;;;13.80;99.90;;;;;;5094359;28;20115;-67
2021/10/15 00:24:05;;;;;;;7.22;3.42;;;13.70;99.90;;;;;;5093340;28;20047;-67
2021/10/15 00:26:30;;;;;;;9.15;3.47;;;13.70;99.90;;;;;;5094277;28;20120;-67
2021/10/15 00:28:56;;;;;;;6.53;2.88;;;13.80;99.90;;;;;;5094116;28;20036;-67
2021/10/15 00:31:22;;;;;;;6.40;3.00;;;13.80;99.90;;;;;;5094279;28;20044;-67
2021/10/15 00:33:47;;;;;;;4.50;3.25;;;13.70;99.90;;;;;;5094281;28;20408;-66
2021/10/15 00:36:13;;;;;;;7.22;2.58;;;13.70;99.90;;;;;;5092875;28;20044;-67
2021/10/15 00:38:38;;;;;;;8.23;3.55;;;13.60;99.90;;;;;;5094156;28;20100;-66
2021/10/15 00:41:04;;;;;;;9.10;3.00;;;13.60;99.90;;;;;;5093972;28;20043;-67
2021/10/15 00:43:29;;;;;;;9.52;3.88;;;13.60;99.90;;;;;;5093745;28;20144;-67
2021/10/15 00:45:55;;;;;;;11.20;3.67;;;13.60;99.90;;;;;;5094131;28;20032;-67
2021/10/15 00:48:20;;;;;;;7.10;3.65;;;13.60;99.90;;;;;;5093194;28;20421;-67
2021/10/15 00:50:47;;;;;;;8.05;3.95;;;13.60;99.90;;;;;;5093624;28;20062;-67
2021/10/15 00:53:13;;;;;;;6.88;3.65;;;13.60;99.90;;;;;;5092597;28;20043;-67
2021/10/15 00:55:39;;;;;;;7.47;4.35;;;13.50;99.90;;;;;;5094064;28;20097;-67
2021/10/15 00:58:04;;;;;;;8.10;3.75;;;13.50;99.90;;;;;;5093913;28;20472;-67
2021/10/15 01:00:30;;;;;;;7.70;4.45;;;13.50;99.90;;;;;;5093514;28;20069;-67
2021/10/15 01:02:57;;;;;;;7.00;4.97;;;13.50;99.90;;;;;;5093868;28;20036;-67
2021/10/15 01:05:23;;;;;;;13.77;6.45;;;13.50;99.90;;;;;;5093649;28;20040;-67
2021/10/15 01:07:50;;;;;;;9.82;5.70;;;13.50;99.90;;;;;;5093630;28;20115;-67
2021/10/15 01:10:16;;;;;;;8.35;5.90;;;13.60;99.90;;;;;;5093205;28;20078;-67
2021/10/15 01:12:42;;;;;;;11.68;6.88;;;13.60;99.90;;;;;;5093814;28;20377;-67
2021/10/15 01:15:08;;;;;;;11.40;6.80;;;13.50;99.90;;;;;;5093882;28;20039;-67
2021/10/15 01:17:34;;;;;;;16.17;7.55;;;13.60;99.90;;;;;;5093745;28;20036;-67
2021/10/15 01:19:59;;;;;;;10.40;7.15;;;13.50;99.90;;;;;;5093511;28;20055;-67
2021/10/15 01:22:29;;;;;;;13.45;7.45;;;13.50;99.90;;;;;;5093712;28;20040;-67
2021/10/15 01:24:56;;;;;;;12.48;7.57;;;13.50;99.90;;;;;;5093408;28;20520;-67
2021/10/15 01:27:22;;;;;;;13.23;8.02;;;13.50;99.90;;;;;;5093738;28;20036;-67
2021/10/15 01:29:48;;;;;;;13.25;8.27;;;13.50;99.90;;;;;;5092001;28;20067;-67
2021/10/15 01:32:15;;;;;;;17.05;9.05;;;13.50;99.90;;;;;;5093301;28;20044;-67
2021/10/15 01:34:40;;;;;;;15.23;8.77;;;13.50;99.90;;;;;;5092432;28;20067;-67
2021/10/15 01:37:06;;;;;;;14.35;8.85;;;13.40;99.90;;;;;;5097791;28;20089;-67
2021/10/15 01:39:32;;;;;;;13.40;8.90;;;13.40;99.90;;;;;;5097433;28;20076;-67
2021/10/15 01:41:58;;;;;;;19.02;10.98;;;13.40;99.90;;;;;;5097605;28;20032;-67
2021/10/15 01:44:23;;;;;;;17.77;10.98;;;13.40;99.90;;;;;;5097523;28;20044;-67
2021/10/15 01:46:49;;;;;;;19.10;12.63;;;13.50;99.90;;;;;;5097507;28;20116;-67
2021/10/15 01:49:14;;;;;;;22.33;13.90;;;13.50;99.90;;;;;;5097075;28;20043;-67
2021/10/15 01:51:40;;;;;;;21.95;14.68;;;13.50;99.90;;;;;;5097458;28;20114;-67
2021/10/15 01:54:06;;;;;;;21.02;13.90;;;13.50;99.90;;;;;;5097417;28;20111;-67
2021/10/15 01:56:38;;;;;;;25.05;15.00;;;13.60;99.90;;;;;;5097372;28;20388;-67
2021/10/15 01:59:05;;;;;;;20.45;15.43;;;13.60;99.90;;;;;;5095555;28;20123;-67
2021/10/15 02:01:31;;;;;;;24.75;15.63;;;13.60;99.90;;;;;;5097325;28;20064;-67
2021/10/15 02:03:56;;;;;;;23.13;15.70;;;13.60;99.90;;;;;;5096988;28;20043;-67
2021/10/15 02:06:22;;;;;;;21.42;14.80;;;13.50;99.90;;;;;;5097031;28;20593;-67
2021/10/15 02:08:48;;;;;;;26.63;15.82;;;13.50;99.90;;;;;;5096479;28;20044;-67
2021/10/15 02:11:13;;;;;;;24.40;16.17;;;13.40;99.90;;;;;;5096832;28;20063;-67
2021/10/15 02:13:40;;;;;;;20.73;15.93;;;13.50;99.90;;;;;;5095558;28;20040;-67
2021/10/15 02:16:05;;;;;;;28.27;16.45;;;13.50;99.90;;;;;;5096961;28;20583;-67
2021/10/15 02:18:31;;;;;;;25.40;15.30;;;13.50;99.90;;;;;;5095649;28;20119;-67
2021/10/15 02:20:57;;;;;;;25.50;16.00;;;13.40;99.90;;;;;;5096824;28;20044;-67
2021/10/15 02:23:23;;;;;;;24.48;16.38;;;13.40;99.90;;;;;;5096587;28;20298;-67
2021/10/15 02:25:49;;;;;;;26.23;16.95;;;13.40;99.90;;;;;;5096943;28;20043;-67
2021/10/15 02:28:15;;;;;;;21.67;15.43;;;13.40;99.90;;;;;;5095840;28;20048;-67
2021/10/15 02:30:40;;;;;;;26.85;16.77;;;13.50;99.90;;;;;;5096455;28;20044;-67
2021/10/15 02:33:06;;;;;;;24.80;17.08;;;13.50;99.90;;;;;;5096434;28;20098;-67
2021/10/15 02:35:32;;;;;;;28.85;16.13;;;13.50;99.90;;;;;;5096439;28;20059;-67
2021/10/15 02:38:00;;;;;;;22.27;15.10;;;13.50;99.90;;;;;;5095006;28;20040;-67
2021/10/15 02:40:28;;;;;;;25.27;15.95;;;13.50;99.90;;;;;;5096259;28;20407;-67
2021/10/15 02:42:54;;;;;;;26.00;16.65;;;13.50;99.90;;;;;;5096673;28;20369;-67
2021/10/15 02:45:19;;;;;;;25.35;16.98;;;13.50;99.90;;;;;;5096423;28;20036;-67
2021/10/15 02:47:45;;;;;;;25.92;16.95;;;13.40;99.90;;;;;;5095089;28;20484;-67
2021/10/15 02:50:11;;;;;;;25.70;15.70;;;13.50;99.90;;;;;;5095789;28;20519;-67
2021/10/15 02:52:36;;;;;;;24.50;16.38;;;13.50;99.90;;;;;;5096460;28;20047;-67
2021/10/15 02:55:02;;;;;;;24.63;15.98;;;13.50;99.90;;;;;;5095009;28;20089;-66
2021/10/15 02:57:28;;;;;;;24.73;13.60;;;13.40;99.90;;;;;;5094757;28;20117;-66
2021/10/15 02:59:53;;;;;;;21.70;15.73;;;13.50;99.90;;;;;;5096063;28;20448;-67
2021/10/15 03:02:19;;;;;;;21.88;14.73;;;13.50;99.90;;;;;;5096434;28;20059;-67
2021/10/15 03:04:45;;;;;;;19.40;14.00;;;13.60;99.90;;;;;;5095833;28;20036;-67
2021/10/15 03:07:10;;;;;;;20.67;15.68;;;13.50;99.90;;;;;;5095821;28;20068;-67
2021/10/15 03:09:36;;;;;;;25.90;14.27;;;13.50;99.90;;;;;;5095709;28;20506;-67
2021/10/15 03:12:01;;;;;;;21.50;14.02;;;13.50;99.90;;;;;;5096133;28;20375;-67
2021/10/15 03:14:27;;;;;;;26.83;14.80;;;13.60;99.90;;;;;;5095849;28;20156;-67
2021/10/15 03:16:52;;;;;;;20.50;14.00;;;13.60;99.90;;;;;;5095752;28;20071;-67
2021/10/15 03:19:18;;;;;;;25.98;14.63;;;13.50;99.90;;;;;;5095517;28;20466;-67
2021/10/15 03:21:44;;;;;;;27.20;13.98;;;13.60;99.90;;;;;;5094531;28;20087;-67
2021/10/15 03:24:10;;;;;;;26.70;14.02;;;13.60;99.90;;;;;;5095700;28;20036;-67
2021/10/15 03:26:36;;;;;;;19.60;13.05;;;13.60;99.90;;;;;;5095914;28;20441;-67
2021/10/15 03:29:01;;;;;;;24.90;13.20;;;13.60;99.90;;;;;;5094009;28;20070;-67
2021/10/15 03:31:27;;;;;;;24.45;13.43;;;13.60;99.90;;;;;;5095573;28;20036;-67
2021/10/15 03:33:52;;;;;;;18.23;10.93;;;13.60;99.90;;;;;;5094492;28;20096;-67
2021/10/15 03:36:18;;;;;;;23.08;11.43;;;13.60;99.90;;;;;;5094224;28;20056;-67
2021/10/15 03:38:43;;;;;;;21.83;11.00;;;13.70;99.90;;;;;;5093702;28;20552;-67
2021/10/15 03:41:09;;;;;;;18.23;10.63;;;13.70;99.90;;;;;;5095476;28;20028;-67
2021/10/15 03:43:35;;;;;;;18.88;10.65;;;13.70;99.90;;;;;;5095074;28;20488;-67
2021/10/15 03:46:00;;;;;;;19.73;9.93;;;13.70;99.90;;;;;;5095146;28;20036;-67
2021/10/15 03:48:26;;;;;;;22.40;11.32;;;13.70;99.90;;;;;;5095493;28;20411;-66
2021/10/15 03:50:51;;;;;;;18.42;9.88;;;13.70;99.90;;;;;;5094632;28;20044;-67
2021/10/15 03:53:17;;;;;;;16.48;9.63;;;13.70;99.90;;;;;;5094004;28;20048;-67
2021/10/15 03:55:42;;;;;;;18.77;10.40;;;13.70;99.90;;;;;;5094840;28;20515;-67
2021/10/15 03:58:08;;;;;;;19.73;10.00;;;13.60;99.90;;;;;;5094480;28;20031;-67
2021/10/15 04:00:34;;;;;;;13.85;9.50;;;13.60;99.90;;;;;;5094777;28;20043;-67
2021/10/15 04:02:59;;;;;;;19.60;9.65;;;13.60;99.90;;;;;;5093410;28;20066;-67
2021/10/15 04:05:25;;;;;;;17.52;9.55;;;13.70;99.90;;;;;;5093440;28;20072;-67
2021/10/15 04:07:50;;;;;;;19.92;10.20;;;13.70;99.90;;;;;;5094730;28;20438;-67
2021/10/15 04:10:16;;;;;;;16.45;9.52;;;13.70;99.90;;;;;;5094268;28;20083;-67
2021/10/15 04:12:42;;;;;;;20.63;10.98;;;13.70;99.90;;;;;;5094733;28;20036;-67
2021/10/15 04:15:09;;;;;;;16.98;9.85;;;13.70;99.90;;;;;;5094749;28;20036;-67
2021/10/15 04:17:34;;;;;;;15.40;8.05;;;13.80;99.90;;;;;;5094606;28;20097;-67
2021/10/15 04:20:00;;;;;;;20.00;8.85;;;13.70;99.90;;;;;;5094136;28;20036;-67
2021/10/15 04:22:26;;;;;;;16.75;8.43;;;13.70;99.90;;;;;;5094696;28;20039;-67
2021/10/15 04:24:52;;;;;;;13.43;7.97;;;13.70;99.90;;;;;;5094599;28;20113;-67
2021/10/15 04:27:19;;;;;;;23.02;8.40;;;13.70;99.90;;;;;;5093379;28;20043;-67
2021/10/15 04:29:45;;;;;;;16.27;8.65;;;13.70;99.90;;;;;;5092886;28;20050;-67
2021/10/15 04:32:10;;;;;;;15.02;8.45;;;13.80;99.90;;;;;;5094042;28;20044;-67
2021/10/15 04:34:36;;;;;;;21.42;9.82;;;13.70;99.90;;;;;;5094254;28;20044;-67
2021/10/15 04:37:02;;;;;;;18.35;8.52;;;13.70;99.90;;;;;;5094256;28;20076;-67
2021/10/15 04:39:27;;;;;;;16.17;9.82;;;13.60;99.90;;;;;;5092411;28;20054;-67
2021/10/15 04:41:53;;;;;;;15.57;9.30;;;13.60;99.90;;;;;;5094290;28;20074;-67
2021/10/15 04:44:18;;;;;;;19.17;9.30;;;13.50;99.90;;;;;;5094068;28;20036;-67
2021/10/15 04:46:44;;;;;;;22.05;10.18;;;13.50;99.90;;;;;;5094150;28;20085;-67
2021/10/15 04:49:10;;;;;;;19.98;9.52;;;13.50;99.90;;;;;;5093970;28;20035;-67
2021/10/15 04:51:35;;;;;;;23.13;9.68;;;13.40;99.90;;;;;;5093882;28;20044;-67
2021/10/15 04:54:01;;;;;;;18.67;9.57;;;13.40;99.90;;;;;;5094025;28;20035;-67
2021/10/15 04:56:26;;;;;;;20.00;8.73;;;13.30;99.90;;;;;;5093676;28;20071;-67
2021/10/15 04:58:52;;;;;;;22.65;9.65;;;13.30;99.90;;;;;;5093436;28;20044;-67
2021/10/15 05:01:17;;;;;;;15.32;8.45;;;13.30;99.90;;;;;;5093655;28;20044;-67
2021/10/15 05:03:43;;;;;;;12.45;7.95;;;13.40;99.90;;;;;;5094007;28;20119;-67
2021/10/15 05:06:09;;;;;;;10.48;6.40;;;13.30;99.90;;;;;;5094095;28;20169;-67
2021/10/15 05:08:44;;;;;;;14.90;5.57;;;13.30;99.90;;;;;;5093416;28;20035;-68
2021/10/15 05:11:10;;;;;;;11.32;3.63;;;13.40;99.90;;;;;;5092107;28;20085;-67
2021/10/15 05:13:35;;;;;;;5.63;1.73;;;13.20;99.90;;;;;;5093659;28;20032;-67
2021/10/15 05:16:01;;;;;;;5.28;1.30;;;13.10;99.90;;;;;;5093893;28;20042;-68
2021/10/15 05:18:26;;;;;;;5.80;0.85;;;12.80;99.90;;;;;;5093324;28;20044;-67
2021/10/15 05:20:52;;;;;;;5.50;1.00;;;12.50;99.90;;;;;;5093651;28;20043;-67
2021/10/15 05:23:17;;;;;;;3.83;1.10;;;12.30;99.90;;;;;;5093758;28;20036;-67
2021/10/15 05:25:43;;;;;;;9.07;1.33;;;12.30;99.90;;;;;;5092477;28;20043;-67
2021/10/15 05:28:09;;;;;;;8.35;1.00;;;12.10;99.90;;;;;;5093375;28;20036;-67
2021/10/15 05:30:34;;;;;;;8.13;1.52;;;12.00;99.90;;;;;;5093641;28;20036;-67
2021/10/15 05:33:00;;;;;;;9.15;1.38;;;11.90;99.90;;;;;;5092144;28;20055;-67
2021/10/15 05:35:26;;;;;;;4.45;1.30;;;11.70;99.90;;;;;;5093412;28;20084;-67
2021/10/15 05:37:51;;;;;;;8.32;1.15;;;11.80;99.90;;;;;;5093394;28;20123;-67
2021/10/15 05:40:17;;;;;;;12.57;1.70;;;11.70;99.90;;;;;;5093435;28;20036;-67
2021/10/15 05:42:47;;;;;;;9.73;1.58;;;11.50;99.90;;;;;;5093354;28;20036;-67
2021/10/15 05:45:13;;;;;;;7.78;1.85;;;11.50;99.90;;;;;;5093699;28;20032;-67
2021/10/15 05:47:39;;;;;;;15.90;2.30;;;11.50;99.90;;;;;;5093846;28;20047;-67
2021/10/15 05:50:05;;;;;;;8.50;1.60;;;11.40;99.90;;;;;;5093126;28;20048;-67
2021/10/15 05:52:37;;;;;;;14.00;1.95;;;11.50;99.90;;;;;;5093430;28;20384;-67
2021/10/15 05:55:25;;;;;;;10.35;1.77;;;11.40;99.90;;;;;;5092265;28;20133;-67
2021/10/15 06:00:35;;;;;;;8.93;1.80;;;11.40;99.90;;;;;;5093240;28;20052;-67
2021/10/15 06:03:01;;;;;;;14.80;1.98;;;11.40;99.90;;;;;;5093182;28;20051;-67
2021/10/15 06:15:52;;;;;;;9.38;1.92;;;11.30;99.90;;;;;;5093399;28;20381;-68
2021/10/15 06:18:20;;;;;;;10.57;2.30;;;11.30;99.90;;;;;;5092999;28;20052;-67
2021/10/15 06:20:46;;;;;;;11.80;2.28;;;11.20;99.90;;;;;;5092746;28;20036;-67
2021/10/15 06:23:13;;;;;;;15.20;2.10;;;11.30;99.90;;;;;;5096986;28;20081;-67
2021/10/15 06:25:38;;;;;;;13.68;2.33;;;11.20;99.90;;;;;;5095760;28;20055;-67
2021/10/15 06:28:08;;;;;;;13.65;2.10;;;11.20;99.90;;;;;;5096801;28;20448;-67
2021/10/15 06:30:34;;;;;;;10.80;2.85;;;11.20;99.90;;;;;;5095054;28;20075;-67
2021/10/15 06:32:59;;;;;;;12.40;2.17;;;11.20;99.90;;;;;;5095177;28;20156;-67
2021/10/15 06:35:25;;;;;;;14.95;2.25;;;11.20;99.90;;;;;;5095446;28;20073;-67
2021/10/15 06:37:51;;;;;;;13.45;3.90;;;11.20;99.90;;;;;;5096719;28;20119;-67
2021/10/15 06:40:17;;;;;;;18.25;2.10;;;11.20;99.90;;;;;;5096045;28;20052;-67
2021/10/15 06:42:43;;;;;;;9.85;1.50;;;11.10;99.90;;;;;;5096607;28;20075;-67
2021/10/15 06:45:09;;;;;;;8.55;1.67;;;11.10;99.90;;;;;;5096462;28;20373;-67
2021/10/15 06:47:35;;;;;;;11.98;2.45;;;11.10;99.90;;;;;;5095293;28;20044;-67
2021/10/15 06:50:01;;;;;;;10.80;1.60;;;11.20;99.90;;;;;;5096224;28;20044;-67
2021/10/15 06:52:26;;;;;;;12.05;2.15;;;11.10;99.90;;;;;;5095076;28;20044;-67
2021/10/15 06:54:52;;;;;;;9.32;1.92;;;11.10;99.90;;;;;;5094951;28;20047;-67
2021/10/15 06:57:18;;;;;;;11.20;1.73;;;11.10;99.90;;;;;;5096219;28;20032;-67
2021/10/15 06:59:44;;;;;;;10.43;1.95;;;11.10;99.90;;;;;;5095855;28;20047;-67
2021/10/15 07:02:10;;;;;;;13.30;1.77;;;11.10;99.90;;;;;;5096078;28;20064;-67
2021/10/15 07:04:36;;;;;;;12.68;1.60;;;11.00;99.90;;;;;;5094699;28;20551;-67
2021/10/15 07:07:03;;;;;;;12.95;2.47;;;11.00;99.90;;;;;;5095981;28;20114;-67
2021/10/15 07:09:29;;;;;;;8.30;2.40;;;11.10;99.90;;;;;;5095839;28;20077;-67
2021/10/15 07:11:54;;;;;;;9.65;2.13;;;11.10;99.90;;;;;;5095973;28;20143;-67
2021/10/15 07:14:20;;;;;;;6.35;1.83;;;11.10;99.90;;;;;;5096239;28;20040;-67
2021/10/15 07:16:46;;;;;;;6.60;1.42;;;11.10;99.90;;;;;;5095631;28;20127;-67
2021/10/15 07:19:13;;;;;;;7.38;1.90;;;11.10;99.90;;;;;;5095654;28;20044;-67
2021/10/15 07:21:39;;;;;;;15.32;1.88;;;11.10;99.90;;;;;;5095758;28;20032;-67
2021/10/15 07:24:05;;;;;;;11.93;1.80;;;11.10;99.90;;;;;;5094887;28;20430;-67
2021/10/15 07:26:31;;;;;;;10.55;1.88;;;11.20;99.90;;;;;;5095570;28;20499;-67
2021/10/15 07:28:57;;;;;;;9.95;1.60;;;11.20;99.90;;;;;;5095183;28;20052;-67
2021/10/15 07:31:22;;;;;;;17.58;3.03;;;11.20;99.90;;;;;;5094189;28;20062;-67
2021/10/15 07:33:48;;;;;;;9.55;1.95;;;11.30;99.90;;;;;;5093757;28;20117;-67
2021/10/15 07:36:15;;;;;;;9.88;1.50;;;11.30;99.90;;;;;;5094462;28;20519;-67
2021/10/15 07:38:41;;;;;;;15.85;1.98;;;11.30;99.90;;;;;;5095162;28;20109;-66
2021/10/15 07:41:07;;;;;;;7.68;1.23;;;11.20;99.90;;;;;;5094309;28;20464;-67
2021/10/15 07:43:33;;;;;;;9.95;1.67;;;11.10;99.90;;;;;;5095597;28;20071;-67
2021/10/15 07:45:59;;;;;;;11.60;1.55;;;11.20;99.90;;;;;;5095078;28;20548;-67
2021/10/15 07:48:25;;;;;;;8.75;1.63;;;11.10;99.90;;;;;;5095295;28;20039;-67
2021/10/15 07:50:50;;;;;;;11.73;2.00;;;11.10;99.90;;;;;;5093797;28;20039;-66
2021/10/15 07:53:16;;;;;;;11.25;1.60;;;11.20;99.90;;;;;;5095252;28;20075;-66
2021/10/15 07:55:42;;;;;;;10.82;1.60;;;11.20;99.90;;;;;;5093964;28;20051;-66
2021/10/15 07:58:08;;;;;;;10.20;1.92;;;11.30;99.90;;;;;;5094773;28;20048;-67
2021/10/15 08:00:35;;;;;;;15.43;2.60;;;11.30;99.90;;;;;;5094852;28;20040;-66
2021/10/15 08:03:01;;;;;;;13.80;2.00;;;11.30;99.90;;;;;;5095130;28;20068;-68
2021/10/15 08:05:27;;;;;;;9.25;2.10;;;11.30;99.90;;;;;;5095005;28;20125;-66
2021/10/15 08:07:53;;;;;;;9.43;1.70;;;11.30;99.90;;;;;;5094913;28;20040;-66
2021/10/15 08:10:18;;;;;;;12.90;1.83;;;11.50;99.90;;;;;;5094377;28;20040;-66
2021/10/15 08:12:44;;;;;;;6.78;2.03;;;11.70;99.90;;;;;;5093868;28;20044;-66
2021/10/15 08:15:12;;;;;;;9.68;1.83;;;12.00;99.90;;;;;;5094518;28;20040;-66
2021/10/15 08:17:37;;;;;;;12.05;2.10;;;12.20;99.90;;;;;;5093156;28;20047;-66
2021/10/15 08:20:04;;;;;;;10.85;2.20;;;12.40;99.90;;;;;;5094260;28;20041;-66
2021/10/15 08:22:30;;;;;;;9.80;2.25;;;12.60;99.90;;;;;;5094359;28;20500;-66
2021/10/15 08:24:55;;;;;;;10.85;1.90;;;12.70;99.90;;;;;;5093202;28;20119;-66
2021/10/15 08:27:21;;;;;;;16.85;2.40;;;12.80;99.90;;;;;;5094705;28;20044;-66
2021/10/15 08:29:46;;;;;;;7.38;2.10;;;12.90;99.90;;;;;;5093119;28;20047;-66
2021/10/15 08:32:12;;;;;;;11.20;2.30;;;12.90;99.90;;;;;;5094418;28;20494;-67
2021/10/15 08:34:38;;;;;;;14.30;3.22;;;12.90;99.90;;;;;;5094715;28;20044;-67
2021/10/15 08:37:05;;;;;;;9.18;2.08;;;13.00;99.90;;;;;;5093352;28;20531;-66
2021/10/15 08:39:30;;;;;;;8.80;2.03;;;13.00;99.90;;;;;;5093860;28;20128;-66
2021/10/15 08:41:57;;;;;;;13.68;2.38;;;13.00;99.90;;;;;;5094033;28;20043;-67
2021/10/15 08:44:27;;;;;;;11.55;1.70;;;13.00;99.90;;;;;;5093543;28;20032;-66
2021/10/15 08:46:53;;;;;;;11.60;1.65;;;13.00;99.90;;;;;;5094073;28;20137;-66
2021/10/15 08:49:18;;;;;;;10.18;2.53;;;13.10;99.90;;;;;;5093903;28;20044;-66
2021/10/15 08:51:44;;;;;;;15.05;2.40;;;13.00;99.90;;;;;;5093754;28;20051;-66
2021/10/15 08:54:10;;;;;;;13.95;2.45;;;13.00;99.90;;;;;;5093081;28;20053;-66
2021/10/15 08:56:40;;;;;;;11.95;2.42;;;13.00;99.90;;;;;;5092634;28;20097;-66
2021/10/15 08:59:07;;;;;;;11.07;1.92;;;13.00;99.90;;;;;;5092260;28;20044;-66
2021/10/15 09:01:45;;;;;;;12.98;2.45;;;13.00;99.90;;;;;;5092428;28;20545;-66
2021/10/15 09:04:16;;;;;;;14.45;2.20;;;12.90;99.90;;;;;;5094043;28;20035;-66
2021/10/15 09:06:42;;;;;;;17.50;2.70;;;12.90;99.90;;;;;;5093711;28;20043;-66
2021/10/15 09:09:08;;;;;;;8.32;1.77;;;13.00;99.90;;;;;;5075356;28;20172;-66
2021/10/15 09:11:47;;;;;;;11.07;2.00;;;13.00;99.90;;;;;;5093803;28;20044;-66
2021/10/15 09:14:16;;;;;;;13.48;2.30;;;13.10;99.90;;;;;;5093779;28;20040;-66
2021/10/15 09:17:15;;;;;;;10.18;2.17;;;13.10;99.90;;;;;;5093539;28;20032;-68
2021/10/15 09:19:47;;;;;;;12.75;2.80;;;13.00;99.90;;;;;;5087737;28;20052;-66
2021/10/15 09:22:20;;;;;;;13.40;2.05;;;12.80;99.90;;;;;;5093515;28;20028;-66
2021/10/15 09:24:54;;;;;;;17.85;2.42;;;12.60;99.90;;;;;;5092193;28;20071;-66
2021/10/15 09:27:34;;;;;;;13.13;3.20;;;12.50;99.90;;;;;;5092326;28;20048;-66
2021/10/15 09:30:11;;;;;;;10.35;2.70;;;12.40;99.90;;;;;;5091912;28;20065;-66
2021/10/15 09:32:45;;;;;;;13.73;3.25;;;12.40;99.90;;;;;;5093121;28;20093;-66
2021/10/15 09:35:13;;;;;;;14.10;3.45;;;12.50;99.90;;;;;;5093471;28;20048;-66
2021/10/15 09:37:43;;;;;;;19.13;2.88;;;12.60;99.90;;;;;;5093295;28;20047;-66
2021/10/15 09:40:14;;;;;;;13.20;2.95;;;12.70;99.90;;;;;;5092979;28;20086;-66
2021/10/15 09:42:47;;;;;;;13.88;3.05;;;12.70;99.90;;;;;;5092226;28;20044;-66
2021/10/15 09:45:18;;;;;;;15.10;3.40;;;12.70;99.90;;;;;;5093348;28;20057;-66
2021/10/15 09:47:46;;;;;;;14.18;3.03;;;12.80;99.90;;;;;;5092898;28;20397;-66
2021/10/15 09:50:14;;;;;;;15.38;3.17;;;12.80;99.90;;;;;;5092817;28;20047;-66
2021/10/15 09:52:42;;;;;;;10.55;2.55;;;12.80;99.90;;;;;;5093093;28;20119;-66
2021/10/15 09:55:32;;;;;;;19.85;3.35;;;12.80;99.90;;;;;;5092021;28;20047;-66
2021/10/15 09:58:12;;;;;;;17.30;2.50;;;12.80;99.90;;;;;;5095824;28;20040;-66
2021/10/15 10:00:39;;;;;;;17.02;2.75;;;12.80;99.90;;;;;;5096747;28;20119;-66
2021/10/15 10:03:05;;;;;;;19.55;4.15;;;12.90;99.90;;;;;;5097704;28;20040;-66
2021/10/15 10:05:31;;;;;;;20.13;3.58;;;12.70;99.90;;;;;;5095977;28;20044;-66
2021/10/15 10:07:58;;;;;;;19.75;3.88;;;12.70;99.90;;;;;;5097122;28;20476;-66
2021/10/15 10:10:33;;;;;;;22.15;4.63;;;12.60;99.90;;;;;;5096951;28;20384;-66
2021/10/15 10:12:59;;;;;;;23.35;3.92;;;12.70;99.90;;;;;;5095794;28;20043;-66
2021/10/15 10:15:27;;;;;;;16.60;3.88;;;12.70;99.90;;;;;;5096870;28;20054;-66
2021/10/15 10:18:26;;;;;;;18.85;3.55;;;12.80;99.90;;;;;;5096673;28;20044;-66
2021/10/15 10:21:18;;;;;;;20.83;4.82;;;12.80;99.90;;;;;;5095163;28;20048;-66
2021/10/15 10:24:01;;;;;;;18.58;3.85;;;12.90;99.90;;;;;;5095539;28;20039;-66
2021/10/15 10:26:26;;;;;;;17.38;2.85;;;12.90;99.90;;;;;;5096554;28;20043;-66
2021/10/15 10:29:06;;;;;;;11.23;2.45;;;12.90;99.20;;;;;;5096062;28;20036;-66
2021/10/15 10:31:33;;;;;;;14.40;2.80;;;13.00;97.80;;;;;;5096319;28;20532;-71
2021/10/15 10:34:04;;;;;;;16.20;2.50;;;13.10;99.90;;;;;;5096514;28;20059;-70
2021/10/15 10:36:33;;;;;;;17.10;3.90;;;13.00;99.90;;;;;;5096479;28;20161;-70
2021/10/15 10:39:17;;;;;;;19.63;3.78;;;12.90;99.90;;;;;;5096080;28;20507;-70
2021/10/15 10:42:07;;;;;;;19.35;3.78;;;12.70;99.90;;;;;;5094941;28;20043;-70
2021/10/15 10:44:40;;;;;;;11.05;2.13;;;12.50;99.90;;;;;;5096392;28;20036;-70
2021/10/15 10:47:23;;;;;;;15.65;3.20;;;12.30;99.90;;;;;;5096368;28;20048;-70
2021/10/15 10:50:05;;;;;;;16.25;2.80;;;12.30;99.90;;;;;;5094618;28;20357;-70
2021/10/15 10:52:50;;;;;;;17.65;3.38;;;12.50;99.90;;;;;;5094791;28;20127;-70
2021/10/15 10:55:34;;;;;;;17.67;2.97;;;12.50;99.90;;;;;;5096358;28;20051;-70
2021/10/15 10:58:00;;;;;;;16.92;3.33;;;12.50;99.90;;;;;;5096008;28;20044;-70
2021/10/15 11:00:29;;;;;;;16.77;3.58;;;12.50;99.90;;;;;;5096146;28;20371;-70
2021/10/15 11:02:57;;;;;;;11.80;2.60;;;12.50;99.90;;;;;;5096201;28;20040;-70
2021/10/15 11:05:32;;;;;;;13.90;3.35;;;12.50;99.90;;;;;;5096082;28;20040;-70
2021/10/15 11:08:22;;;;;;;9.68;3.03;;;12.50;99.90;;;;;;5095119;28;20388;-70
2021/10/15 11:10:48;;;;;;;11.52;3.05;;;12.60;99.90;;;;;;5094806;28;20447;-70
2021/10/15 11:13:33;;;;;;;12.50;2.50;;;12.70;99.90;;;;;;5095985;28;20040;-70
2021/10/15 11:15:59;;;;;;;12.63;3.28;;;12.80;99.90;;;;;;5094761;28;20048;-70
2021/10/15 11:18:24;;;;;;;10.40;2.47;;;12.90;99.90;;;;;;5094362;28;20431;-70
2021/10/15 11:20:50;;;;;;;6.53;2.22;;;12.90;99.60;;;;;;5095594;28;20052;-70
2021/10/15 11:23:17;;;;;;;10.05;1.95;;;13.10;96.30;;;;;;5094198;28;20035;-70
2021/10/15 11:25:46;;;;;;;11.43;2.05;;;13.10;93.70;;;;;;5094365;28;20067;-70
2021/10/15 11:28:15;;;;;;;11.73;2.10;;;13.10;94.70;;;;;;5095595;28;20067;-70
2021/10/15 11:30:44;;;;;;;14.07;3.45;;;13.10;92.00;;;;;;5095113;28;20039;-70
2021/10/15 11:33:16;;;;;;;10.95;2.58;;;13.10;92.80;;;;;;5095264;28;20476;-70
2021/10/15 11:35:44;;;;;;;14.52;2.42;;;13.30;92.50;;;;;;5094202;28;20040;-70
2021/10/15 11:38:18;;;;;;;11.52;2.60;;;13.30;96.70;;;;;;5094235;28;20414;-70
2021/10/15 11:40:48;;;;;;;15.70;2.88;;;13.40;94.30;;;;;;5094196;28;20058;-70
2021/10/15 11:43:22;;;;;;;11.45;3.03;;;13.30;92.30;;;;;;5093793;28;20040;-70
2021/10/15 11:45:50;;;;;;;12.98;2.78;;;13.30;92.40;;;;;;5093838;28;20051;-70
2021/10/15 11:48:19;;;;;;;14.00;3.03;;;13.30;92.70;;;;;;5095389;28;20043;-70
2021/10/15 11:51:15;;;;;;;26.95;2.75;;;13.30;93.70;;;;;;5094666;28;20048;-70
2021/10/15 11:53:42;;;;;;;10.95;2.83;;;13.20;93.10;;;;;;5093251;28;20471;-70
2021/10/15 11:56:13;;;;;;;16.35;3.40;;;13.20;94.00;;;;;;5094790;28;20032;-70
2021/10/15 11:58:42;;;;;;;19.13;2.90;;;13.30;96.50;;;;;;5093363;28;20050;-71
2021/10/15 12:01:09;;;;;;;17.58;2.60;;;13.40;98.20;;;;;;5094871;28;20491;-70
2021/10/15 12:03:50;;;;;;;15.10;3.13;;;13.50;97.50;;;;;;5094795;28;20365;-70
2021/10/15 12:06:25;;;;;;;10.05;2.67;;;13.60;94.90;;;;;;5094818;28;20036;-70
2021/10/15 12:08:53;;;;;;;16.80;4.30;;;13.50;97.40;;;;;;5094403;28;20044;-71
2021/10/15 12:11:29;;;;;;;13.80;2.50;;;13.40;94.80;;;;;;5094733;28;20047;-70
2021/10/15 12:13:55;;;;;;;10.48;2.35;;;13.30;96.50;;;;;;5093636;28;20393;-70
2021/10/15 12:16:31;;;;;;;17.90;2.75;;;13.20;97.70;;;;;;5093317;28;20036;-70
2021/10/15 12:18:59;;;;;;;8.43;2.25;;;12.90;96.90;;;;;;5093194;28;20059;-70
2021/10/15 12:21:35;;;;;;;9.40;2.38;;;12.90;98.00;;;;;;5094377;28;20105;-70
2021/10/15 12:24:02;;;;;;;16.50;2.80;;;12.90;98.50;;;;;;5094901;28;20036;-70
2021/10/15 12:26:29;;;;;;;15.27;2.35;;;13.00;99.90;;;;;;5094659;28;20032;-70
2021/10/15 12:28:55;;;;;;;13.05;2.53;;;13.00;99.70;;;;;;5093508;28;20040;-70
2021/10/15 12:31:33;;;;;;;8.95;1.95;;;13.10;99.90;;;;;;5094143;28;20050;-70
2021/10/15 12:34:14;;;;;;;10.63;2.17;;;13.00;98.90;;;;;;5093945;28;20047;-70
2021/10/15 12:36:41;;;;;;;10.80;2.22;;;12.80;99.70;;;;;;5094589;28;20398;-70
2021/10/15 12:39:23;;;;;;;14.50;3.00;;;12.80;99.90;;;;;;5093882;28;20513;-70
2021/10/15 12:41:51;;;;;;;10.82;2.63;;;12.80;99.90;;;;;;5094389;28;20521;-70
2021/10/15 12:44:27;;;;;;;13.45;2.22;;;12.70;99.90;;;;;;5093957;28;20424;-70
2021/10/15 12:47:02;;;;;;;8.80;2.38;;;12.80;99.90;;;;;;5094293;28;20392;-70
2021/10/15 12:49:29;;;;;;;10.43;2.13;;;12.80;99.90;;;;;;5093804;28;20040;-70
2021/10/15 12:51:55;;;;;;;8.60;1.80;;;12.90;99.90;;;;;;5093868;28;20072;-70
2021/10/15 12:54:43;;;;;;;13.27;1.95;;;12.90;99.90;;;;;;5094274;28;20124;-70
2021/10/15 12:57:16;;;;;;;10.35;1.88;;;12.90;99.90;;;;;;5094013;28;20036;-70